createdAt,value
2019-01-15T00:01:14.576Z,6.87
2019-01-15T00:03:45.521Z,5.57
2019-01-15T00:06:16.455Z,4.30
2019-01-15T00:08:47.399Z,3.87
2019-01-15T00:11:18.656Z,4.07
2019-01-15T00:13:49.571Z,3.60
2019-01-15T00:16:20.661Z,3.10
2019-01-15T00:18:51.766Z,6.17
2019-01-15T00:21:22.624Z,5.77
2019-01-15T00:23:53.661Z,7.33
2019-01-15T00:26:24.453Z,13.63
2019-01-15T00:28:55.737Z,8.13
2019-01-15T00:31:26.591Z,8.00
2019-01-15T00:33:57.391Z,8.30
2019-01-15T00:36:28.250Z,6.50
2019-01-15T00:38:59.279Z,5.93
2019-01-15T00:41:30.206Z,4.60
2019-01-15T00:44:01.076Z,4.23
2019-01-15T00:46:31.927Z,3.47
2019-01-15T00:49:02.868Z,4.00
2019-01-15T00:51:33.890Z,3.67
2019-01-15T00:54:04.935Z,3.27
2019-01-15T00:56:36.019Z,3.17
2019-01-15T00:59:06.973Z,3.03
2019-01-15T01:01:38.058Z,2.90
2019-01-15T01:04:09.150Z,2.93
2019-01-15T01:06:40.238Z,2.80
2019-01-15T01:09:11.205Z,2.40
2019-01-15T01:11:42.301Z,2.57
2019-01-15T01:14:13.374Z,2.23
2019-01-15T01:16:44.278Z,2.73
2019-01-15T01:19:15.188Z,2.40
2019-01-15T01:21:46.034Z,2.50
2019-01-15T01:24:17.139Z,2.33
2019-01-15T01:26:47.987Z,2.50
2019-01-15T01:29:19.046Z,2.80
2019-01-15T01:31:50.082Z,2.50
2019-01-15T01:34:21.014Z,2.30
2019-01-15T01:36:51.793Z,2.53
2019-01-15T01:39:22.590Z,2.67
2019-01-15T01:41:53.675Z,2.70
2019-01-15T01:44:24.459Z,2.77
2019-01-15T01:46:55.554Z,2.30
2019-01-15T01:49:27.318Z,2.50
2019-01-15T01:52:01.264Z,2.80
2019-01-15T01:54:32.348Z,2.50
2019-01-15T01:57:03.145Z,2.63
2019-01-15T01:59:34.393Z,2.63
2019-01-15T02:02:07.855Z,2.60
2019-01-15T02:04:38.280Z,2.47
2019-01-15T02:07:09.946Z,2.50
2019-01-15T02:09:41.101Z,2.60
2019-01-15T02:12:12.824Z,2.70
2019-01-15T02:14:43.733Z,2.20
2019-01-15T02:17:14.703Z,2.47
2019-01-15T02:19:45.846Z,2.30
2019-01-15T02:22:16.813Z,2.50
2019-01-15T02:24:47.948Z,2.33
2019-01-15T02:27:18.981Z,2.10
2019-01-15T02:29:49.749Z,2.87
2019-01-15T02:32:20.504Z,2.53
2019-01-15T02:34:51.512Z,2.33
2019-01-15T02:37:22.327Z,2.30
2019-01-15T02:39:53.092Z,2.03
2019-01-15T02:42:23.844Z,2.20
2019-01-15T02:44:54.613Z,2.43
2019-01-15T02:47:25.436Z,2.40
2019-01-15T02:49:56.430Z,2.23
2019-01-15T02:52:27.413Z,2.50
2019-01-15T02:54:58.475Z,2.20
2019-01-15T02:57:29.244Z,2.40
2019-01-15T03:00:00.008Z,2.60
2019-01-15T03:02:30.964Z,2.60
2019-01-15T03:05:01.722Z,2.13
2019-01-15T03:07:32.863Z,2.43
2019-01-15T03:10:04.557Z,2.40
2019-01-15T03:12:35.814Z,2.27
2019-01-15T03:15:07.339Z,2.40
2019-01-15T03:17:38.943Z,2.40
2019-01-15T03:20:10.063Z,2.33
2019-01-15T03:22:41.129Z,2.40
2019-01-15T03:25:13.265Z,2.30
2019-01-15T03:27:44.291Z,2.30
2019-01-15T03:30:23.052Z,2.30
2019-01-15T03:32:54.268Z,2.77
2019-01-15T03:35:25.296Z,2.43
2019-01-15T03:37:56.126Z,2.40
2019-01-15T03:40:27.317Z,2.70
2019-01-15T03:43:03.160Z,2.60
2019-01-15T03:45:30.968Z,2.83
2019-01-15T03:48:01.873Z,2.57
2019-01-15T03:50:32.642Z,2.50
2019-01-15T03:53:03.648Z,2.37
2019-01-15T03:55:34.540Z,2.57
2019-01-15T03:58:05.804Z,2.50
2019-01-15T04:00:36.948Z,2.93
2019-01-15T04:03:07.949Z,3.30
2019-01-15T04:05:38.810Z,2.70
2019-01-15T04:08:09.653Z,2.60
2019-01-15T04:10:40.502Z,2.97
2019-01-15T04:13:11.661Z,3.43
2019-01-15T04:15:42.671Z,3.60
2019-01-15T04:18:13.729Z,3.50
2019-01-15T04:20:44.887Z,3.47
2019-01-15T04:23:15.724Z,3.33
2019-01-15T04:25:46.870Z,3.20
2019-01-15T04:28:17.723Z,3.30
2019-01-15T04:30:48.863Z,3.40
2019-01-15T04:33:19.650Z,2.73
2019-01-15T04:35:50.938Z,3.17
2019-01-15T04:38:21.719Z,3.20
2019-01-15T04:40:52.723Z,3.60
2019-01-15T04:43:23.904Z,3.27
2019-01-15T04:45:54.738Z,3.83
2019-01-15T04:48:26.079Z,3.70
2019-01-15T04:50:56.930Z,3.60
2019-01-15T04:53:28.849Z,3.40
2019-01-15T04:55:59.691Z,3.80
2019-01-15T04:58:30.556Z,3.87
2019-01-15T05:01:01.628Z,3.77
2019-01-15T05:03:32.731Z,4.37
2019-01-15T05:06:03.955Z,4.03
2019-01-15T05:08:34.742Z,3.73
2019-01-15T05:11:05.809Z,3.80
2019-01-15T05:13:37.053Z,4.00
2019-01-15T05:16:08.067Z,3.70
2019-01-15T05:18:39.170Z,4.03
2019-01-15T05:21:10.328Z,4.17
2019-01-15T05:23:41.182Z,4.47
2019-01-15T05:26:12.555Z,4.10
2019-01-15T05:28:43.646Z,4.77
2019-01-15T05:31:14.507Z,4.70
2019-01-15T05:33:45.840Z,4.30
2019-01-15T05:36:16.609Z,4.00
2019-01-15T05:38:47.399Z,4.47
2019-01-15T05:41:18.171Z,4.73
2019-01-15T05:43:48.959Z,4.70
2019-01-15T05:46:20.148Z,5.33
2019-01-15T05:48:51.225Z,4.43
2019-01-15T05:51:29.964Z,5.00
2019-01-15T05:54:00.834Z,4.73
2019-01-15T05:56:32.240Z,4.30
2019-01-15T05:59:03.175Z,4.93
2019-01-15T06:01:34.018Z,5.10
2019-01-15T06:04:05.297Z,4.77
2019-01-15T06:06:36.372Z,5.33
2019-01-15T06:09:10.125Z,5.13
2019-01-15T06:11:41.067Z,4.90
2019-01-15T06:14:12.070Z,4.73
2019-01-15T06:16:42.842Z,5.00
2019-01-15T06:19:13.700Z,5.23
2019-01-15T06:21:45.760Z,5.03
2019-01-15T06:24:16.618Z,5.10
2019-01-15T06:26:47.815Z,5.30
2019-01-15T06:29:18.908Z,5.47
2019-01-15T06:31:50.243Z,5.50
2019-01-15T06:34:21.618Z,5.50
2019-01-15T06:36:52.397Z,5.33
2019-01-15T06:39:24.299Z,5.87
2019-01-15T06:41:55.152Z,6.30
2019-01-15T06:44:26.064Z,6.00
2019-01-15T06:46:56.917Z,6.10
2019-01-15T06:49:28.235Z,6.17
2019-01-15T06:51:59.693Z,6.23
2019-01-15T06:54:30.607Z,6.07
2019-01-15T06:57:01.547Z,5.83
2019-01-15T06:59:32.693Z,6.30
2019-01-15T07:02:03.960Z,6.77
2019-01-15T07:04:34.975Z,6.20
2019-01-15T07:07:06.380Z,5.67
2019-01-15T07:09:37.470Z,6.03
2019-01-15T07:12:10.561Z,6.37
2019-01-15T07:14:41.594Z,6.53
2019-01-15T07:17:12.712Z,6.23
2019-01-15T07:19:43.804Z,6.40
2019-01-15T07:22:14.883Z,6.60
2019-01-15T07:24:45.675Z,6.70
2019-01-15T07:27:16.758Z,7.20
2019-01-15T07:29:47.792Z,7.03
2019-01-15T07:32:19.656Z,6.63
2019-01-15T07:34:50.663Z,7.53
2019-01-15T07:37:21.476Z,7.03
2019-01-15T07:39:52.269Z,7.63
2019-01-15T07:42:23.310Z,6.93
2019-01-15T07:44:54.399Z,6.93
2019-01-15T07:47:25.568Z,7.37
2019-01-15T07:49:56.406Z,6.90
2019-01-15T07:52:27.579Z,6.90
2019-01-15T07:54:58.363Z,6.87
2019-01-15T07:57:29.131Z,7.27
2019-01-15T08:00:00.268Z,7.40
2019-01-15T08:02:31.343Z,6.40
2019-01-15T08:05:02.367Z,6.53
2019-01-15T08:07:33.450Z,6.80
2019-01-15T08:10:05.182Z,7.00
2019-01-15T08:12:36.319Z,7.37
2019-01-15T08:15:08.100Z,6.50
2019-01-15T08:17:39.020Z,6.93
2019-01-15T08:20:11.284Z,6.77
2019-01-15T08:22:42.814Z,6.57
2019-01-15T08:25:14.315Z,6.50
2019-01-15T08:27:45.155Z,6.67
2019-01-15T08:30:30.855Z,6.57
2019-01-15T08:33:01.926Z,6.57
2019-01-15T08:35:32.797Z,7.57
2019-01-15T08:38:03.952Z,6.83
2019-01-15T08:40:34.818Z,6.93
2019-01-15T08:43:05.939Z,6.90
2019-01-15T08:45:36.791Z,6.53
2019-01-15T08:48:16.276Z,6.70
2019-01-15T08:50:49.001Z,6.50
2019-01-15T08:53:22.805Z,7.20
2019-01-15T08:55:57.967Z,7.30
2019-01-15T08:58:28.820Z,7.00
2019-01-15T09:00:59.908Z,6.97
2019-01-15T09:03:30.759Z,7.20
2019-01-15T09:06:01.847Z,6.93
2019-01-15T09:08:32.622Z,6.67
2019-01-15T09:11:03.491Z,6.80
2019-01-15T09:13:35.381Z,6.43
2019-01-15T09:16:06.333Z,7.00
2019-01-15T09:18:37.200Z,7.03
2019-01-15T09:21:08.060Z,6.80
2019-01-15T09:23:38.927Z,6.60
2019-01-15T09:26:09.717Z,7.07
2019-01-15T09:28:40.567Z,6.73
2019-01-15T09:31:11.660Z,6.57
2019-01-15T09:33:42.738Z,6.57
2019-01-15T09:36:13.718Z,6.73
2019-01-15T09:38:45.030Z,7.03
2019-01-15T09:41:16.391Z,7.20
2019-01-15T09:43:47.309Z,7.80
2019-01-15T09:46:18.239Z,7.10
2019-01-15T09:48:49.163Z,7.10
2019-01-15T09:51:20.325Z,6.67
2019-01-15T09:53:51.578Z,7.67
2019-01-15T09:56:22.591Z,7.43
2019-01-15T09:58:53.366Z,6.90
2019-01-15T10:01:24.459Z,7.53
2019-01-15T10:03:55.294Z,7.10
2019-01-15T10:06:26.302Z,8.23
2019-01-15T10:08:57.156Z,8.03
2019-01-15T10:11:28.082Z,7.93
2019-01-15T10:13:58.962Z,8.00
2019-01-15T10:16:30.059Z,8.20
2019-01-15T10:19:01.122Z,8.63
2019-01-15T10:21:32.218Z,8.13
2019-01-15T10:24:03.074Z,8.13
2019-01-15T10:26:33.954Z,8.43
2019-01-15T10:29:05.164Z,8.80
2019-01-15T10:32:30.128Z,8.73
2019-01-15T10:35:03.579Z,8.80
2019-01-15T10:37:34.675Z,8.60
2019-01-15T10:40:06.747Z,7.90
2019-01-15T10:42:37.611Z,8.70
2019-01-15T10:45:08.935Z,8.77
2019-01-15T10:47:39.728Z,8.67
2019-01-15T10:50:11.255Z,9.47
2019-01-15T10:52:42.129Z,9.93
2019-01-15T10:55:12.982Z,9.40
2019-01-15T10:57:43.768Z,9.77
2019-01-15T11:00:15.245Z,10.33
2019-01-15T11:02:46.037Z,9.53
2019-01-15T11:05:17.373Z,9.40
2019-01-15T11:07:48.231Z,8.60
2019-01-15T11:10:19.408Z,9.03
2019-01-15T11:12:50.276Z,9.30
2019-01-15T11:15:21.599Z,8.97
2019-01-15T11:17:52.563Z,9.17
2019-01-15T11:20:23.659Z,8.93
2019-01-15T11:22:54.540Z,9.13
2019-01-15T11:25:25.756Z,10.07
2019-01-15T11:27:56.687Z,9.33
2019-01-15T11:30:28.899Z,9.07
2019-01-15T11:32:59.839Z,10.07
2019-01-15T11:35:30.611Z,9.33
2019-01-15T11:38:01.517Z,10.97
2019-01-15T11:40:33.635Z,11.50
2019-01-15T11:43:05.259Z,10.13
2019-01-15T11:45:36.183Z,9.63
2019-01-15T11:48:07.403Z,10.57
2019-01-15T11:50:38.480Z,10.87
2019-01-15T11:53:09.351Z,10.20
2019-01-15T11:55:40.320Z,10.83
2019-01-15T11:58:11.418Z,11.27
2019-01-15T12:00:50.752Z,13.50
2019-01-15T12:03:33.149Z,11.83
2019-01-15T12:06:23.322Z,10.30
2019-01-15T12:09:22.265Z,12.37
2019-01-15T12:12:05.749Z,10.40
2019-01-15T12:14:58.333Z,10.70
2019-01-15T12:17:40.180Z,10.50
2019-01-15T12:20:30.958Z,9.80
2019-01-15T12:23:36.312Z,10.03
2019-01-15T12:26:29.267Z,9.70
2019-01-15T12:29:22.051Z,9.37
2019-01-15T12:32:00.048Z,10.10
2019-01-15T12:34:50.499Z,9.37
2019-01-15T12:37:47.136Z,10.27
2019-01-15T12:40:35.503Z,9.33
2019-01-15T12:43:40.308Z,10.53
2019-01-15T12:46:26.059Z,10.67
2019-01-15T12:49:21.359Z,9.97
2019-01-15T12:52:18.696Z,10.77
2019-01-15T12:55:06.973Z,10.90
2019-01-15T12:57:56.993Z,10.53
2019-01-15T13:00:41.882Z,9.63
2019-01-15T13:03:31.678Z,9.07
2019-01-15T13:06:11.898Z,11.17
2019-01-15T13:09:00.412Z,10.10
2019-01-15T13:11:54.308Z,8.83
2019-01-15T13:14:41.375Z,8.83
2019-01-15T13:17:43.024Z,8.93
2019-01-15T13:20:43.449Z,9.40
2019-01-15T13:23:36.379Z,9.37
2019-01-15T13:26:30.054Z,9.70
2019-01-15T13:29:28.882Z,9.23
2019-01-15T13:32:11.803Z,8.90
2019-01-15T13:35:00.262Z,9.67
2019-01-15T13:37:44.973Z,9.53
2019-01-15T13:40:32.362Z,13.10
2019-01-15T13:43:15.612Z,18.53
2019-01-15T13:46:05.789Z,20.30
2019-01-15T13:48:52.167Z,22.70
2019-01-15T13:51:40.983Z,15.43
2019-01-15T13:54:36.921Z,13.63
2019-01-15T13:57:24.988Z,18.10
2019-01-15T14:00:20.306Z,19.20
2019-01-15T14:03:13.024Z,16.43
2019-01-15T14:06:15.772Z,13.33
2019-01-15T14:09:17.765Z,8.93
2019-01-15T14:12:22.591Z,8.83
2019-01-15T14:15:15.664Z,10.10
2019-01-15T14:18:14.844Z,9.80
2019-01-15T14:21:04.645Z,12.20
2019-01-15T14:23:52.115Z,9.50
2019-01-15T14:26:50.635Z,9.60
2019-01-15T14:29:39.105Z,8.77
2019-01-15T14:32:24.124Z,12.07
2019-01-15T14:35:23.188Z,9.20
2019-01-15T14:38:18.815Z,7.93
2019-01-15T14:41:15.091Z,9.27
2019-01-15T14:44:03.334Z,10.77
2019-01-15T14:46:47.321Z,9.53
2019-01-15T14:49:39.541Z,9.50
2019-01-15T14:52:35.583Z,9.53
2019-01-15T14:55:37.914Z,8.73
2019-01-15T14:58:26.961Z,10.70
2019-01-15T15:01:15.818Z,10.43
2019-01-15T15:03:58.639Z,9.73
2019-01-15T15:06:48.432Z,15.63
2019-01-15T15:09:36.921Z,10.43
2019-01-15T15:12:22.276Z,10.87
2019-01-15T15:15:04.294Z,12.60
2019-01-15T15:17:58.406Z,10.17
2019-01-15T15:20:40.131Z,10.13
2019-01-15T15:23:36.047Z,10.10
2019-01-15T15:26:20.127Z,9.43
2019-01-15T15:29:19.156Z,9.80
2019-01-15T15:32:07.562Z,10.17
2019-01-15T15:34:56.311Z,9.87
2019-01-15T15:37:39.770Z,10.40
2019-01-15T15:40:44.513Z,10.40
2019-01-15T15:43:46.346Z,9.90
2019-01-15T15:46:40.066Z,16.20
2019-01-15T15:49:50.933Z,19.17
2019-01-15T15:53:04.051Z,16.70
2019-01-15T15:56:12.825Z,15.77
2019-01-15T15:59:32.253Z,13.47
2019-01-15T16:02:41.120Z,11.90
2019-01-15T16:06:36.558Z,10.43
2019-01-15T16:08:55.825Z,9.37
2019-01-15T16:12:04.905Z,9.20
2019-01-15T16:15:17.163Z,9.83
2019-01-15T16:18:21.581Z,9.43
2019-01-15T16:21:29.352Z,9.40
2019-01-15T16:24:37.442Z,10.87
2019-01-15T16:27:53.425Z,10.50
2019-01-15T16:30:53.252Z,17.47
2019-01-15T16:33:52.863Z,15.23
2019-01-15T16:36:51.776Z,8.00
2019-01-15T16:39:56.608Z,7.30
2019-01-15T16:42:59.947Z,8.00
2019-01-15T16:46:01.749Z,7.57
2019-01-15T16:49:05.707Z,7.57
2019-01-15T16:52:06.273Z,9.60
2019-01-15T16:55:13.597Z,8.30
2019-01-15T16:58:11.012Z,9.23
2019-01-15T17:01:15.526Z,9.30
2019-01-15T17:04:08.796Z,7.40
2019-01-15T17:06:57.691Z,7.27
2019-01-15T17:09:38.930Z,9.80
2019-01-15T17:12:27.500Z,12.70
2019-01-15T17:15:24.776Z,9.27
2019-01-15T17:18:17.708Z,8.90
2019-01-15T17:21:07.562Z,8.30
2019-01-15T17:24:09.390Z,7.47
2019-01-15T17:27:17.136Z,7.00
2019-01-15T17:30:07.211Z,7.83
2019-01-15T17:33:08.590Z,8.70
2019-01-15T17:35:57.052Z,7.30
2019-01-15T17:38:42.608Z,6.97
2019-01-15T17:41:39.876Z,6.80
2019-01-15T17:44:28.115Z,8.93
2019-01-15T17:47:16.978Z,7.77
2019-01-15T17:50:05.435Z,7.53
2019-01-15T17:53:07.816Z,7.70
2019-01-15T17:55:56.073Z,8.63
2019-01-15T17:58:44.106Z,10.10
2019-01-15T18:01:30.581Z,10.33
2019-01-15T18:04:29.708Z,11.07
2019-01-15T18:07:37.808Z,9.37
2019-01-15T18:10:26.405Z,9.33
2019-01-15T18:13:12.016Z,7.07
2019-01-15T18:16:04.768Z,6.93
2019-01-15T18:18:47.007Z,6.70
2019-01-15T18:21:36.783Z,6.63
2019-01-15T18:24:26.582Z,6.83
2019-01-15T18:27:25.375Z,7.33
2019-01-15T18:30:15.159Z,6.33
2019-01-15T18:32:55.279Z,8.07
2019-01-15T18:35:39.631Z,7.93
2019-01-15T18:38:38.644Z,7.77
2019-01-15T18:41:31.609Z,6.63
2019-01-15T18:44:21.714Z,6.70
2019-01-15T18:47:10.067Z,7.43
2019-01-15T18:50:03.996Z,7.03
2019-01-15T18:52:52.472Z,7.53
2019-01-15T18:55:32.550Z,8.10
2019-01-15T18:58:40.396Z,9.10
2019-01-15T19:01:33.520Z,8.97
2019-01-15T19:04:27.437Z,7.60
2019-01-15T19:07:16.121Z,8.13
2019-01-15T19:10:14.727Z,7.40
2019-01-15T19:13:04.766Z,7.60
2019-01-15T19:15:59.684Z,8.23
2019-01-15T19:18:59.192Z,8.27
2019-01-15T19:21:49.043Z,7.80
2019-01-15T19:24:37.781Z,10.83
2019-01-15T19:27:30.628Z,11.40
2019-01-15T19:30:29.572Z,12.47
2019-01-15T19:33:18.322Z,9.03
2019-01-15T19:36:20.561Z,11.80
2019-01-15T19:39:13.264Z,13.53
2019-01-15T19:42:03.316Z,15.07
2019-01-15T19:45:11.548Z,11.17
2019-01-15T19:48:02.062Z,10.20
2019-01-15T19:50:52.400Z,8.40
2019-01-15T19:53:39.166Z,8.23
2019-01-15T19:56:31.174Z,7.77
2019-01-15T19:59:27.113Z,8.10
2019-01-15T20:02:16.467Z,7.77
2019-01-15T20:05:12.917Z,7.50
2019-01-15T20:07:55.805Z,8.10
2019-01-15T20:10:39.286Z,7.70
2019-01-15T20:13:26.503Z,7.43
2019-01-15T20:16:22.122Z,7.90
2019-01-15T20:19:10.582Z,7.60
2019-01-15T20:21:59.247Z,10.17
2019-01-15T20:24:40.238Z,12.07
2019-01-15T20:27:48.375Z,11.10
2019-01-15T20:30:36.748Z,15.60
2019-01-15T20:33:28.131Z,11.87
2019-01-15T20:36:30.082Z,7.90
2019-01-15T20:39:20.099Z,8.13
2019-01-15T20:42:08.172Z,8.63
2019-01-15T20:45:07.442Z,8.17
2019-01-15T20:47:58.356Z,8.93
2019-01-15T20:50:51.470Z,9.27
2019-01-15T20:53:41.255Z,9.23
2019-01-15T20:56:29.525Z,7.77
2019-01-15T20:59:19.023Z,7.37
2019-01-15T21:02:07.463Z,7.63
2019-01-15T21:04:55.736Z,7.93
2019-01-15T21:07:45.592Z,7.43
2019-01-15T21:10:34.328Z,7.57
2019-01-15T21:13:22.143Z,7.83
2019-01-15T21:16:18.420Z,8.57
2019-01-15T21:19:15.411Z,8.57
2019-01-15T21:22:00.138Z,8.20
2019-01-15T21:24:48.682Z,7.83
2019-01-15T21:27:53.818Z,11.53
2019-01-15T21:30:42.073Z,30.53
2019-01-15T21:33:30.524Z,36.63
2019-01-15T21:36:13.900Z,10.87
2019-01-15T21:39:03.949Z,13.80
2019-01-15T21:42:13.819Z,8.20
2019-01-15T21:45:02.004Z,7.03
2019-01-15T21:47:44.480Z,7.40
2019-01-15T21:50:32.986Z,7.33
2019-01-15T21:53:21.457Z,6.73
2019-01-15T21:56:10.215Z,6.53
2019-01-15T21:59:06.323Z,7.63
2019-01-15T22:02:14.363Z,7.87
2019-01-15T22:05:16.052Z,7.03
2019-01-15T22:08:04.639Z,7.50
2019-01-15T22:10:54.565Z,8.17
2019-01-15T22:13:42.845Z,10.00
2019-01-15T22:16:31.243Z,7.10
2019-01-15T22:19:21.332Z,8.30
2019-01-15T22:22:09.927Z,7.53
2019-01-15T22:25:11.406Z,7.10
2019-01-15T22:28:03.956Z,7.27
2019-01-15T22:30:54.305Z,7.03
2019-01-15T22:33:44.087Z,7.20
2019-01-15T22:36:37.253Z,6.83
2019-01-15T22:39:19.278Z,6.83
2019-01-15T22:42:14.424Z,8.97
2019-01-15T22:45:00.672Z,7.27
2019-01-15T22:48:08.914Z,7.27
2019-01-15T22:51:10.809Z,7.17
2019-01-15T22:54:03.345Z,7.57
2019-01-15T22:56:58.970Z,7.47
2019-01-15T22:59:40.099Z,7.27
2019-01-15T23:02:36.452Z,6.87
2019-01-15T23:05:35.583Z,7.20
2019-01-15T23:08:23.422Z,8.67
2019-01-15T23:11:16.604Z,7.80
2019-01-15T23:14:04.494Z,7.63
2019-01-15T23:16:49.880Z,6.40
2019-01-15T23:19:35.092Z,6.47
2019-01-15T23:22:24.956Z,6.43
2019-01-15T23:25:19.751Z,6.57
2019-01-15T23:28:03.306Z,6.50
2019-01-15T23:30:49.893Z,6.13
2019-01-15T23:33:38.583Z,6.03
2019-01-15T23:36:27.110Z,6.50
2019-01-15T23:39:15.366Z,6.63
2019-01-15T23:42:05.163Z,6.30
2019-01-15T23:44:54.948Z,6.53
2019-01-15T23:47:44.042Z,5.87
2019-01-15T23:50:27.351Z,5.50
2019-01-15T23:53:15.667Z,5.73
2019-01-15T23:56:08.438Z,6.03
2019-01-15T23:59:16.415Z,5.87
